createdAt,value
2023-03-27T00:01:30.697Z,100.00
2023-03-27T00:03:58.829Z,100.00
2023-03-27T00:06:27.420Z,100.00
2023-03-27T00:08:55.797Z,100.00
2023-03-27T00:11:25.103Z,100.00
2023-03-27T00:13:54.891Z,100.00
2023-03-27T00:16:26.753Z,100.00
2023-03-27T00:18:56.037Z,100.00
2023-03-27T00:21:26.062Z,100.00
2023-03-27T00:23:54.597Z,100.00
2023-03-27T00:26:22.987Z,100.00
2023-03-27T00:28:51.183Z,100.00
2023-03-27T00:31:19.156Z,100.00
2023-03-27T00:33:47.199Z,100.00
2023-03-27T00:36:15.419Z,100.00
2023-03-27T00:38:43.915Z,100.00
2023-03-27T00:41:12.743Z,100.00
2023-03-27T00:43:43.976Z,100.00
2023-03-27T00:46:15.689Z,100.00
2023-03-27T00:48:48.126Z,100.00
2023-03-27T00:51:17.240Z,100.00
2023-03-27T00:53:47.719Z,100.00
2023-03-27T00:56:16.736Z,100.00
2023-03-27T00:58:49.822Z,100.00
2023-03-27T01:01:20.340Z,100.00
2023-03-27T01:03:50.298Z,100.00
2023-03-27T01:06:19.312Z,100.00
2023-03-27T01:08:48.300Z,100.00
2023-03-27T01:11:35.213Z,100.00
2023-03-27T01:14:24.911Z,100.00
2023-03-27T01:17:02.114Z,100.00
2023-03-27T01:19:36.584Z,100.00
2023-03-27T01:22:40.800Z,100.00
2023-03-27T01:25:46.669Z,100.00
2023-03-27T01:28:24.546Z,100.00
2023-03-27T01:31:15.588Z,100.00
2023-03-27T01:34:14.491Z,100.00
2023-03-27T01:37:14.829Z,100.00
2023-03-27T01:40:08.003Z,100.00
2023-03-27T01:42:58.641Z,100.00
2023-03-27T01:45:48.221Z,100.00
2023-03-27T01:48:18.848Z,100.00
2023-03-27T01:51:03.740Z,100.00
2023-03-27T01:53:47.252Z,100.00
2023-03-27T01:56:26.835Z,100.00
2023-03-27T01:59:06.820Z,100.00
2023-03-27T02:01:39.494Z,100.00
2023-03-27T02:04:13.640Z,100.00
2023-03-27T02:06:51.577Z,100.00
2023-03-27T02:09:27.057Z,100.00
2023-03-27T02:12:04.838Z,100.00
2023-03-27T02:14:38.431Z,100.00
2023-03-27T02:17:13.003Z,100.00
2023-03-27T02:19:50.586Z,100.00
2023-03-27T02:22:18.894Z,100.00
2023-03-27T02:24:49.079Z,100.00
2023-03-27T02:27:23.684Z,100.00
2023-03-27T02:30:05.769Z,100.00
2023-03-27T02:32:35.710Z,100.00
2023-03-27T02:35:30.687Z,100.00
2023-03-27T02:38:19.252Z,100.00
2023-03-27T02:41:36.368Z,100.00
2023-03-27T02:44:17.513Z,100.00
2023-03-27T02:47:19.213Z,100.00
2023-03-27T02:49:55.298Z,100.00
2023-03-27T02:52:29.005Z,100.00
2023-03-27T02:55:06.589Z,100.00
2023-03-27T02:57:39.350Z,100.00
2023-03-27T03:00:34.001Z,100.00
2023-03-27T03:03:18.244Z,100.00
2023-03-27T03:05:50.893Z,100.00
2023-03-27T03:08:21.755Z,100.00
2023-03-27T03:10:50.172Z,100.00
2023-03-27T03:13:18.711Z,100.00
2023-03-27T03:15:48.899Z,100.00
2023-03-27T03:18:18.483Z,100.00
2023-03-27T03:20:47.339Z,100.00
2023-03-27T03:23:16.113Z,100.00
2023-03-27T03:25:44.805Z,100.00
2023-03-27T03:28:13.685Z,100.00
2023-03-27T03:30:42.984Z,100.00
2023-03-27T03:33:14.380Z,100.00
2023-03-27T03:35:43.325Z,100.00
2023-03-27T03:38:28.052Z,100.00
2023-03-27T03:40:58.624Z,100.00
2023-03-27T03:43:29.121Z,100.00
2023-03-27T03:45:57.747Z,100.00
2023-03-27T03:48:26.739Z,100.00
2023-03-27T03:50:55.101Z,100.00
2023-03-27T03:53:23.454Z,100.00
2023-03-27T03:55:53.422Z,100.00
2023-03-27T03:58:21.882Z,100.00
2023-03-27T04:01:05.222Z,100.00
2023-03-27T04:03:39.227Z,100.00
2023-03-27T04:06:08.157Z,100.00
2023-03-27T04:08:37.672Z,100.00
2023-03-27T04:11:06.088Z,100.00
2023-03-27T04:13:56.958Z,100.00
2023-03-27T04:16:34.119Z,100.00
2023-03-27T04:19:07.187Z,100.00
2023-03-27T04:21:36.540Z,100.00
2023-03-27T04:24:05.361Z,100.00
2023-03-27T04:26:43.766Z,100.00
2023-03-27T04:29:30.386Z,100.00
2023-03-27T04:32:01.494Z,100.00
2023-03-27T04:34:41.960Z,100.00
2023-03-27T04:37:43.074Z,100.00
2023-03-27T04:40:25.493Z,100.00
2023-03-27T04:42:56.000Z,100.00
2023-03-27T04:45:25.784Z,100.00
2023-03-27T04:47:54.882Z,100.00
2023-03-27T04:50:23.373Z,100.00
2023-03-27T04:52:52.626Z,100.00
2023-03-27T04:55:24.042Z,100.00
2023-03-27T04:57:53.438Z,100.00
2023-03-27T05:00:23.952Z,100.00
2023-03-27T05:03:28.975Z,100.00
2023-03-27T05:06:12.154Z,100.00
2023-03-27T05:08:41.622Z,100.00
2023-03-27T05:11:15.944Z,100.00
2023-03-27T05:13:44.764Z,100.00
2023-03-27T05:16:14.104Z,100.00
2023-03-27T05:18:46.016Z,100.00
2023-03-27T05:21:14.877Z,100.00
2023-03-27T05:23:43.404Z,100.00
2023-03-27T05:26:11.391Z,100.00
2023-03-27T05:28:59.428Z,100.00
2023-03-27T05:31:28.414Z,100.00
2023-03-27T05:34:05.912Z,100.00
2023-03-27T05:36:35.513Z,100.00
2023-03-27T05:39:04.648Z,100.00
2023-03-27T05:41:47.476Z,100.00
2023-03-27T05:44:23.747Z,100.00
2023-03-27T05:46:51.981Z,100.00
2023-03-27T05:49:25.640Z,100.00
2023-03-27T05:51:58.329Z,100.00
2023-03-27T05:54:26.504Z,100.00
2023-03-27T05:56:58.953Z,100.00
2023-03-27T05:59:27.290Z,100.00
2023-03-27T06:01:59.597Z,100.00
2023-03-27T06:04:36.880Z,100.00
2023-03-27T06:07:12.719Z,100.00
2023-03-27T06:09:41.272Z,100.00
2023-03-27T06:12:31.039Z,100.00
2023-03-27T06:15:07.485Z,100.00
2023-03-27T06:17:42.556Z,100.00
2023-03-27T06:20:12.721Z,100.00
2023-03-27T06:22:50.431Z,100.00
2023-03-27T06:25:20.438Z,100.00
2023-03-27T06:27:51.404Z,100.00
2023-03-27T06:30:22.708Z,100.00
2023-03-27T06:33:12.816Z,100.00
2023-03-27T06:35:43.196Z,100.00
2023-03-27T06:38:25.456Z,100.00
2023-03-27T06:40:53.540Z,100.00
2023-03-27T06:43:23.537Z,100.00
2023-03-27T06:46:03.231Z,100.00
2023-03-27T06:48:51.257Z,100.00
2023-03-27T06:51:23.171Z,100.00
2023-03-27T06:53:51.822Z,100.00
2023-03-27T06:56:20.035Z,100.00
2023-03-27T06:59:07.269Z,100.00
2023-03-27T07:01:35.588Z,100.00
2023-03-27T07:04:18.712Z,100.00
2023-03-27T07:06:57.476Z,100.00
2023-03-27T07:09:27.691Z,100.00
2023-03-27T07:12:01.077Z,100.00
2023-03-27T07:14:29.150Z,100.00
2023-03-27T07:16:58.075Z,100.00
2023-03-27T07:19:28.362Z,100.00
2023-03-27T07:22:07.399Z,100.00
2023-03-27T07:24:38.456Z,100.00
2023-03-27T07:27:07.902Z,100.00
2023-03-27T07:29:37.317Z,100.00
2023-03-27T07:32:09.152Z,100.00
2023-03-27T07:34:41.207Z,100.00
2023-03-27T07:37:22.776Z,100.00
2023-03-27T07:40:14.133Z,100.00
2023-03-27T07:42:46.188Z,100.00
2023-03-27T07:45:22.598Z,100.00
2023-03-27T07:47:54.891Z,100.00
2023-03-27T07:50:23.627Z,100.00
2023-03-27T07:52:51.876Z,100.00
2023-03-27T07:55:22.326Z,100.00
2023-03-27T07:58:03.162Z,100.00
2023-03-27T08:00:35.805Z,100.00
2023-03-27T08:03:16.697Z,100.00
2023-03-27T08:05:56.773Z,100.00
2023-03-27T08:08:39.689Z,100.00
2023-03-27T08:11:27.310Z,100.00
2023-03-27T08:13:59.449Z,100.00
2023-03-27T08:16:33.939Z,100.00
2023-03-27T08:19:06.863Z,100.00
2023-03-27T08:21:40.972Z,100.00
2023-03-27T08:24:10.536Z,100.00
2023-03-27T08:26:59.576Z,100.00
2023-03-27T08:29:28.548Z,100.00
2023-03-27T08:31:58.400Z,100.00
2023-03-27T08:34:30.971Z,100.00
2023-03-27T08:37:04.537Z,100.00
2023-03-27T08:39:54.701Z,100.00
2023-03-27T08:42:37.348Z,100.00
2023-03-27T08:45:40.760Z,100.00
2023-03-27T08:48:27.686Z,100.00
2023-03-27T08:51:11.625Z,100.00
2023-03-27T08:54:15.657Z,100.00
2023-03-27T08:56:50.240Z,100.00
2023-03-27T08:59:41.862Z,100.00
2023-03-27T09:02:36.430Z,100.00
2023-03-27T09:09:39.935Z,100.00
2023-03-27T09:12:29.072Z,100.00
2023-03-27T09:15:33.323Z,100.00
2023-03-27T09:18:10.036Z,100.00
2023-03-27T09:20:45.441Z,100.00
2023-03-27T09:23:28.298Z,100.00
2023-03-27T09:26:30.418Z,100.00
2023-03-27T09:29:29.237Z,100.00
2023-03-27T09:32:20.583Z,100.00
2023-03-27T09:34:50.170Z,100.00
2023-03-27T09:37:19.567Z,100.00
2023-03-27T09:40:23.538Z,100.00
2023-03-27T09:43:14.093Z,100.00
2023-03-27T09:45:48.360Z,100.00
2023-03-27T09:48:50.665Z,100.00
2023-03-27T09:51:40.694Z,100.00
2023-03-27T09:54:32.885Z,100.00
2023-03-27T09:57:07.219Z,100.00
2023-03-27T09:59:54.769Z,100.00
2023-03-27T10:02:28.495Z,100.00
2023-03-27T10:05:01.980Z,100.00
2023-03-27T10:07:34.697Z,100.00
2023-03-27T10:10:42.155Z,100.00
2023-03-27T10:13:26.374Z,100.00
2023-03-27T10:16:06.226Z,100.00
2023-03-27T10:18:54.521Z,100.00
2023-03-27T10:21:31.698Z,100.00
2023-03-27T10:24:06.716Z,100.00
2023-03-27T10:26:55.977Z,100.00
2023-03-27T10:29:28.927Z,100.00
2023-03-27T10:32:02.260Z,100.00
2023-03-27T10:34:59.770Z,100.00
2023-03-27T10:37:37.288Z,100.00
2023-03-27T10:40:40.007Z,100.00
2023-03-27T10:43:29.867Z,100.00
2023-03-27T10:46:05.936Z,100.00
2023-03-27T10:48:47.778Z,100.00
2023-03-27T10:51:28.383Z,100.00
2023-03-27T10:54:14.549Z,100.00
2023-03-27T10:57:00.060Z,100.00
2023-03-27T10:59:41.924Z,100.00
2023-03-27T11:02:37.470Z,99.06
2023-03-27T11:05:12.933Z,97.14
2023-03-27T11:08:12.345Z,95.35
2023-03-27T11:10:46.957Z,93.83
2023-03-27T11:13:28.421Z,92.55
2023-03-27T11:16:23.959Z,92.11
2023-03-27T11:19:30.512Z,93.54
2023-03-27T11:23:05.004Z,94.22
2023-03-27T11:26:12.343Z,95.78
2023-03-27T11:28:50.093Z,95.16
2023-03-27T11:31:46.479Z,93.13
2023-03-27T11:34:38.190Z,91.38
2023-03-27T11:37:37.802Z,89.77
2023-03-27T11:40:28.195Z,90.20
2023-03-27T11:43:01.564Z,87.96
2023-03-27T11:45:42.651Z,84.43
2023-03-27T11:48:34.289Z,82.35
2023-03-27T11:51:29.688Z,81.49
2023-03-27T11:54:14.951Z,79.99
2023-03-27T11:57:04.916Z,79.07
2023-03-27T12:00:05.472Z,78.99
2023-03-27T12:03:01.944Z,78.40
2023-03-27T12:05:43.214Z,76.70
2023-03-27T12:08:31.093Z,76.19
2023-03-27T12:11:03.610Z,74.53
2023-03-27T12:13:47.729Z,75.09
2023-03-27T12:16:57.809Z,75.12
2023-03-27T12:19:53.216Z,76.49
2023-03-27T12:22:37.085Z,78.34
2023-03-27T12:25:33.626Z,80.51
2023-03-27T12:28:23.899Z,83.41
2023-03-27T12:31:34.141Z,87.02
2023-03-27T12:34:30.790Z,88.77
2023-03-27T12:37:02.672Z,88.14
2023-03-27T12:39:46.094Z,89.34
2023-03-27T12:42:44.099Z,91.03
2023-03-27T12:45:22.331Z,92.23
2023-03-27T12:48:10.203Z,93.99
2023-03-27T12:50:47.505Z,95.08
2023-03-27T12:53:42.114Z,96.85
2023-03-27T12:56:25.584Z,97.64
2023-03-27T12:58:55.660Z,97.93
2023-03-27T13:01:52.715Z,98.28
2023-03-27T13:04:52.266Z,99.70
2023-03-27T13:07:43.398Z,99.72
2023-03-27T13:10:36.046Z,99.54
2023-03-27T13:13:23.470Z,99.97
2023-03-27T13:16:01.341Z,99.95
2023-03-27T13:19:05.609Z,99.95
2023-03-27T13:21:57.333Z,99.66
2023-03-27T13:24:53.332Z,98.65
2023-03-27T13:27:49.538Z,96.84
2023-03-27T13:30:40.595Z,95.80
2023-03-27T13:33:18.251Z,94.86
2023-03-27T13:36:15.209Z,94.17
2023-03-27T13:38:53.096Z,94.12
2023-03-27T13:42:10.722Z,92.15
2023-03-27T13:45:20.830Z,90.36
2023-03-27T13:48:25.883Z,90.08
2023-03-27T13:51:27.535Z,90.91
2023-03-27T13:54:33.634Z,91.23
2023-03-27T13:57:24.229Z,90.95
2023-03-27T14:00:21.109Z,90.85
2023-03-27T14:03:16.456Z,91.76
2023-03-27T14:06:15.970Z,93.72
2023-03-27T14:08:56.048Z,91.30
2023-03-27T14:12:15.673Z,89.41
2023-03-27T14:15:22.569Z,86.89
2023-03-27T14:18:37.423Z,85.80
2023-03-27T14:21:10.263Z,84.84
2023-03-27T14:23:50.917Z,83.08
2023-03-27T14:26:42.821Z,81.94
2023-03-27T14:29:16.866Z,79.38
2023-03-27T14:31:50.894Z,77.34
2023-03-27T14:34:53.382Z,76.49
2023-03-27T14:37:39.431Z,75.78
2023-03-27T14:40:23.337Z,75.89
2023-03-27T14:42:56.508Z,75.38
2023-03-27T14:45:27.867Z,73.71
2023-03-27T14:48:19.325Z,75.11
2023-03-27T14:50:54.378Z,75.95
2023-03-27T14:53:29.650Z,75.48
2023-03-27T14:56:37.377Z,76.24
2023-03-27T14:59:15.709Z,75.51
2023-03-27T15:01:52.439Z,76.81
2023-03-27T15:04:25.462Z,77.70
2023-03-27T15:07:13.292Z,77.84
2023-03-27T15:10:07.407Z,78.54
2023-03-27T15:12:57.048Z,80.26
2023-03-27T15:15:47.085Z,80.66
2023-03-27T15:18:36.442Z,81.50
2023-03-27T15:21:17.152Z,82.80
2023-03-27T15:24:10.947Z,84.14
2023-03-27T15:26:42.636Z,84.71
2023-03-27T15:29:27.494Z,85.33
2023-03-27T15:31:57.445Z,85.03
2023-03-27T15:34:34.707Z,84.89
2023-03-27T15:37:10.951Z,85.10
2023-03-27T15:39:58.711Z,86.49
2023-03-27T15:42:44.465Z,87.90
2023-03-27T15:45:16.800Z,92.24
2023-03-27T15:47:57.095Z,97.47
2023-03-27T15:50:31.187Z,100.00
2023-03-27T15:53:01.673Z,100.00
2023-03-27T15:55:44.926Z,100.00
2023-03-27T15:58:26.476Z,100.00
2023-03-27T16:01:03.475Z,100.00
2023-03-27T16:03:48.739Z,100.00
2023-03-27T16:06:45.972Z,100.00
2023-03-27T16:09:23.968Z,100.00
2023-03-27T16:11:54.776Z,100.00
2023-03-27T16:14:34.942Z,100.00
2023-03-27T16:17:20.613Z,100.00
2023-03-27T16:19:58.065Z,100.00
2023-03-27T16:22:35.772Z,100.00
2023-03-27T16:25:08.794Z,100.00
2023-03-27T16:27:42.864Z,100.00
2023-03-27T16:30:22.688Z,100.00
2023-03-27T16:32:51.780Z,100.00
2023-03-27T16:35:20.685Z,100.00
2023-03-27T16:37:48.935Z,100.00
2023-03-27T16:40:17.288Z,100.00
2023-03-27T16:42:45.590Z,100.00
2023-03-27T16:45:13.582Z,100.00
2023-03-27T16:47:42.296Z,100.00
2023-03-27T16:50:18.723Z,100.00
2023-03-27T16:52:46.782Z,100.00
2023-03-27T16:55:17.939Z,100.00
2023-03-27T16:57:48.929Z,100.00
2023-03-27T17:00:22.413Z,100.00
2023-03-27T17:02:50.455Z,100.00
2023-03-27T17:05:18.649Z,100.00
2023-03-27T17:07:48.430Z,100.00
2023-03-27T17:10:16.946Z,100.00
2023-03-27T17:12:45.178Z,100.00
2023-03-27T17:15:15.111Z,100.00
2023-03-27T17:17:43.994Z,100.00
2023-03-27T17:20:15.436Z,100.00
2023-03-27T17:22:45.829Z,100.00
2023-03-27T17:25:14.275Z,100.00
2023-03-27T17:27:42.348Z,100.00
2023-03-27T17:30:16.028Z,100.00
2023-03-27T17:32:46.631Z,100.00
2023-03-27T17:35:16.692Z,100.00
2023-03-27T17:37:47.016Z,100.00
2023-03-27T17:40:15.558Z,100.00
2023-03-27T17:42:44.003Z,100.00
2023-03-27T17:45:19.651Z,100.00
2023-03-27T17:47:48.155Z,100.00
2023-03-27T17:50:16.547Z,100.00
2023-03-27T17:52:44.541Z,100.00
2023-03-27T17:55:13.641Z,100.00
2023-03-27T17:57:42.266Z,100.00
2023-03-27T18:00:10.797Z,100.00
2023-03-27T18:02:43.656Z,100.00
2023-03-27T18:05:12.152Z,100.00
2023-03-27T18:07:40.841Z,100.00
2023-03-27T18:10:12.815Z,100.00
2023-03-27T18:12:41.122Z,100.00
2023-03-27T18:15:09.507Z,100.00
2023-03-27T18:17:41.661Z,100.00
2023-03-27T18:20:15.942Z,100.00
2023-03-27T18:22:44.609Z,100.00
2023-03-27T18:25:12.977Z,100.00
2023-03-27T18:27:41.212Z,100.00
2023-03-27T18:30:13.504Z,100.00
2023-03-27T18:32:43.313Z,100.00
2023-03-27T18:35:17.212Z,100.00
2023-03-27T18:37:46.877Z,100.00
2023-03-27T18:40:18.304Z,100.00
2023-03-27T18:42:46.556Z,100.00
2023-03-27T18:45:16.940Z,100.00
2023-03-27T18:47:45.161Z,100.00
2023-03-27T18:50:14.666Z,100.00
2023-03-27T18:52:43.171Z,100.00
2023-03-27T18:55:11.575Z,100.00
2023-03-27T18:57:39.868Z,100.00
2023-03-27T19:00:09.668Z,100.00
2023-03-27T19:02:37.777Z,100.00
2023-03-27T19:05:07.167Z,100.00
2023-03-27T19:07:36.741Z,100.00
2023-03-27T19:10:14.151Z,100.00
2023-03-27T19:12:46.291Z,100.00
2023-03-27T19:15:33.400Z,100.00
2023-03-27T19:18:21.348Z,100.00
2023-03-27T19:21:14.580Z,100.00
2023-03-27T19:23:44.060Z,100.00
2023-03-27T19:26:16.646Z,100.00
2023-03-27T19:28:50.973Z,100.00
2023-03-27T19:31:19.203Z,100.00
2023-03-27T19:33:47.362Z,100.00
2023-03-27T19:36:15.908Z,100.00
2023-03-27T19:38:44.432Z,100.00
2023-03-27T19:41:13.863Z,100.00
2023-03-27T19:43:42.043Z,100.00
2023-03-27T19:46:16.277Z,100.00
2023-03-27T19:48:47.474Z,100.00
2023-03-27T19:51:29.733Z,100.00
2023-03-27T19:53:57.683Z,100.00
2023-03-27T19:56:28.880Z,100.00
2023-03-27T19:58:58.210Z,100.00
2023-03-27T20:01:28.504Z,100.00
2023-03-27T20:03:59.683Z,100.00
2023-03-27T20:06:28.906Z,100.00
2023-03-27T20:09:01.159Z,100.00
2023-03-27T20:11:29.275Z,100.00
2023-03-27T20:13:57.472Z,100.00
2023-03-27T20:16:27.779Z,100.00
2023-03-27T20:19:05.942Z,100.00
2023-03-27T20:21:39.709Z,100.00
2023-03-27T20:24:11.824Z,100.00
2023-03-27T20:26:48.113Z,100.00
2023-03-27T20:29:20.809Z,100.00
2023-03-27T20:31:49.104Z,100.00
2023-03-27T20:34:19.725Z,100.00
2023-03-27T20:36:48.515Z,100.00
2023-03-27T20:39:27.803Z,100.00
2023-03-27T20:41:59.116Z,100.00
2023-03-27T20:44:35.242Z,100.00
2023-03-27T20:47:12.123Z,100.00
2023-03-27T20:49:43.871Z,100.00
2023-03-27T20:52:19.541Z,100.00
2023-03-27T20:54:48.004Z,100.00
2023-03-27T20:57:19.913Z,100.00
2023-03-27T20:59:48.303Z,100.00
2023-03-27T21:02:19.530Z,100.00
2023-03-27T21:04:48.419Z,100.00
2023-03-27T21:07:16.944Z,100.00
2023-03-27T21:09:48.014Z,100.00
2023-03-27T21:12:16.388Z,100.00
2023-03-27T21:14:44.408Z,100.00
2023-03-27T21:17:13.359Z,100.00
2023-03-27T21:19:41.830Z,100.00
2023-03-27T21:22:10.388Z,100.00
2023-03-27T21:24:40.718Z,100.00
2023-03-27T21:27:08.926Z,100.00
2023-03-27T21:29:37.105Z,100.00
2023-03-27T21:32:05.862Z,100.00
2023-03-27T21:34:33.919Z,100.00
2023-03-27T21:37:03.163Z,100.00
2023-03-27T21:39:31.613Z,100.00
2023-03-27T21:41:59.749Z,100.00
2023-03-27T21:44:28.459Z,100.00
2023-03-27T21:46:56.676Z,100.00
2023-03-27T21:49:26.588Z,100.00
2023-03-27T21:51:55.070Z,100.00
2023-03-27T21:54:23.191Z,100.00
2023-03-27T21:56:51.145Z,100.00
2023-03-27T21:59:19.240Z,100.00
2023-03-27T22:01:47.841Z,100.00
2023-03-27T22:04:16.078Z,100.00
2023-03-27T22:06:44.460Z,100.00
2023-03-27T22:09:12.689Z,100.00
2023-03-27T22:11:40.846Z,100.00
2023-03-27T22:14:09.779Z,100.00
2023-03-27T22:16:38.246Z,100.00
2023-03-27T22:19:07.907Z,100.00
2023-03-27T22:21:36.011Z,100.00
2023-03-27T22:24:04.661Z,100.00
2023-03-27T22:26:35.960Z,100.00
2023-03-27T22:29:05.570Z,100.00
2023-03-27T22:31:34.054Z,100.00
2023-03-27T22:34:04.640Z,100.00
2023-03-27T22:36:33.547Z,100.00
2023-03-27T22:39:01.757Z,100.00
2023-03-27T22:41:29.967Z,100.00
2023-03-27T22:44:01.793Z,100.00
2023-03-27T22:46:31.174Z,100.00
2023-03-27T22:48:59.344Z,100.00
2023-03-27T22:51:31.394Z,100.00
2023-03-27T22:54:00.126Z,100.00
2023-03-27T22:56:28.100Z,100.00
2023-03-27T22:58:56.234Z,100.00
2023-03-27T23:01:24.273Z,100.00
2023-03-27T23:03:52.421Z,100.00
2023-03-27T23:06:23.245Z,100.00
2023-03-27T23:08:51.463Z,100.00
2023-03-27T23:11:20.473Z,100.00
2023-03-27T23:13:48.848Z,100.00
2023-03-27T23:16:16.803Z,100.00
2023-03-27T23:18:44.948Z,100.00
2023-03-27T23:21:16.697Z,100.00
2023-03-27T23:23:45.086Z,100.00
2023-03-27T23:26:14.875Z,100.00
2023-03-27T23:28:42.882Z,100.00
2023-03-27T23:31:14.690Z,100.00
2023-03-27T23:33:46.054Z,100.00
2023-03-27T23:36:16.762Z,100.00
2023-03-27T23:38:44.880Z,100.00
2023-03-27T23:41:14.785Z,100.00
2023-03-27T23:43:43.044Z,100.00
2023-03-27T23:46:11.655Z,100.00
2023-03-27T23:48:41.995Z,100.00
2023-03-27T23:51:11.802Z,100.00
2023-03-27T23:53:40.486Z,100.00
2023-03-27T23:56:09.216Z,100.00
2023-03-27T23:58:38.114Z,100.00
